Time;durP1;ratioP1;P1;durP2;ratioP2;P2;SDS_P1;SDS_P2;PMS_P1;PMS_P2;Temp;Humidity;BMP_temperature;BMP_pressure;BME280_temperature;BME280_humidity;BME280_pressure;Samples;Min_cycle;Max_cycle;Signal;HPM_P1;HPM_P2
2022/05/24 00:01:24;;;;;;;6.57;1.87;;;;;;;16.36;50.84;98045.13;4484926;31;20092;-72
2022/05/24 00:03:52;;;;;;;4.40;1.60;;;;;;;16.28;51.33;98040.00;4484647;32;20101;-72
2022/05/24 00:06:19;;;;;;;2.95;1.98;;;;;;;16.21;50.79;98036.47;4485031;32;20088;-71
2022/05/24 00:08:47;;;;;;;5.25;1.35;;;;;;;16.27;50.69;98040.97;4484922;32;20092;-72
2022/05/24 00:11:15;;;;;;;3.12;1.52;;;;;;;16.24;50.92;98033.44;4484950;32;20127;-72
2022/05/24 00:13:42;;;;;;;2.87;1.30;;;;;;;16.19;50.89;98033.22;4484852;32;20119;-72
2022/05/24 00:16:09;;;;;;;9.25;1.70;;;;;;;16.20;50.97;98034.81;4484946;31;20119;-72
2022/05/24 00:18:37;;;;;;;1.55;1.45;;;;;;;16.17;51.30;98024.63;4485193;31;20096;-72
2022/05/24 00:21:05;;;;;;;3.95;1.52;;;;;;;16.16;51.47;98020.37;4484823;31;20123;-72
2022/05/24 00:23:33;;;;;;;4.45;1.75;;;;;;;16.08;51.27;98011.56;4484962;31;20099;-72
2022/05/24 00:26:04;;;;;;;2.42;1.25;;;;;;;15.95;51.55;98016.75;4484580;31;20155;-72
2022/05/24 00:28:32;;;;;;;2.22;1.50;;;;;;;16.04;51.65;98010.31;4483398;32;20096;-72
2022/05/24 00:31:00;;;;;;;3.97;1.27;;;;;;;16.03;51.80;98006.03;4484600;31;20126;-72
2022/05/24 00:33:27;;;;;;;6.45;1.65;;;;;;;16.01;51.63;98005.41;4483567;31;20890;-72
2022/05/24 00:35:55;;;;;;;5.80;1.37;;;;;;;15.96;51.52;98002.53;4484817;31;20088;-72
2022/05/24 00:38:28;;;;;;;6.32;1.60;;;;;;;15.92;51.66;98011.84;4483360;32;20135;-72
2022/05/24 00:41:11;;;;;;;4.15;1.60;;;;;;;15.93;51.75;98014.28;4484731;31;20454;-71
2022/05/24 00:43:43;;;;;;;2.50;1.65;;;;;;;15.93;51.51;98011.66;4484598;31;20085;-71
2022/05/24 00:46:17;;;;;;;1.85;1.42;;;;;;;15.92;51.66;98001.28;4483313;32;20727;-72
2022/05/24 00:48:56;;;;;;;4.15;1.40;;;;;;;15.93;51.87;98013.50;4483396;32;20149;-71
2022/05/24 00:51:28;;;;;;;4.22;1.55;;;;;;;15.85;51.64;98016.25;4484419;32;20197;-72
2022/05/24 00:53:56;;;;;;;2.80;1.35;;;;;;;15.79;52.07;98010.72;4483124;32;20075;-71
2022/05/24 00:57:01;;;;;;;2.15;1.37;;;;;;;15.77;51.98;98010.06;4484754;32;20115;-71
2022/05/24 00:59:38;;;;;;;2.75;1.30;;;;;;;15.69;52.08;98019.94;4484103;31;20092;-71
2022/05/24 01:02:07;;;;;;;3.08;1.30;;;;;;;15.62;52.39;98011.94;4483010;32;20459;-71
2022/05/24 01:04:35;;;;;;;1.98;1.25;;;;;;;15.58;52.63;98011.50;4484164;32;20139;-71
2022/05/24 01:07:03;;;;;;;2.00;1.40;;;;;;;15.66;52.75;98012.41;4484353;31;20119;-71
2022/05/24 01:09:56;;;;;;;2.78;1.60;;;;;;;15.70;52.70;98006.53;4483033;32;20100;-72
2022/05/24 01:12:32;;;;;;;4.05;1.65;;;;;;;15.74;52.53;98012.25;4483001;32;20101;-72
2022/05/24 01:15:02;;;;;;;3.72;1.30;;;;;;;15.77;53.08;98018.00;4484209;31;20173;-71
2022/05/24 01:17:29;;;;;;;5.22;1.65;;;;;;;15.67;53.38;98024.56;4484264;31;20111;-72
2022/05/24 01:19:56;;;;;;;1.60;1.27;;;;;;;15.54;53.82;98022.62;4482770;32;20487;-72
2022/05/24 01:22:57;;;;;;;1.60;1.23;;;;;;;15.50;54.33;98035.37;4482827;32;20112;-72
2022/05/24 01:25:43;;;;;;;2.33;1.42;;;;;;;15.40;54.46;98038.31;4484286;31;20115;-72
2022/05/24 01:28:14;;;;;;;3.70;1.60;;;;;;;15.43;54.10;98039.78;4483850;31;20084;-72
2022/05/24 01:30:41;;;;;;;5.55;1.60;;;;;;;15.39;54.69;98047.22;4482727;32;20122;-71
2022/05/24 01:36:13;;;;;;;6.97;2.28;;;;;;;15.42;54.92;98083.00;4450194;32;20097;-72
2022/05/24 01:38:48;;;;;;;3.87;1.60;;;;;;;15.39;55.32;98118.50;4437867;32;20117;-71
2022/05/24 01:41:25;;;;;;;3.83;1.42;;;;;;;15.38;54.61;98103.69;4450129;32;20125;-72
2022/05/24 01:43:54;;;;;;;2.65;1.58;;;;;;;15.44;54.93;98099.47;4450767;32;20124;-71
2022/05/24 01:46:26;;;;;;;4.50;1.60;;;;;;;15.38;55.56;98085.22;4451929;32;20478;-71
2022/05/24 01:48:56;;;;;;;2.30;1.62;;;;;;;15.40;56.87;98072.63;4439666;32;20111;-72
2022/05/24 01:51:28;;;;;;;2.25;1.50;;;;;;;15.29;57.53;98028.25;4439640;32;20157;-71
2022/05/24 01:53:58;;;;;;;3.22;1.73;;;;;;;15.26;58.42;97991.66;4439484;32;20101;-71
2022/05/24 01:57:06;;;;;;;5.75;1.80;;;;;;;15.15;58.90;98005.34;4440588;32;20202;-72
2022/05/24 01:59:33;;;;;;;6.47;1.90;;;;;;;15.02;58.74;98004.19;4408335;32;20124;-71
2022/05/24 02:02:01;;;;;;;2.40;1.73;;;;;;;14.98;60.04;98010.81;4421375;32;20134;-72
2022/05/24 02:04:31;;;;;;;2.62;1.80;;;;;;;14.98;60.92;98025.84;4421086;32;20156;-71
2022/05/24 02:07:07;;;;;;;3.50;1.75;;;;;;;14.79;61.07;98037.75;4421234;32;20153;-71
2022/05/24 02:09:37;;;;;;;2.83;1.75;;;;;;;14.75;62.76;98057.56;4421228;32;20105;-72
2022/05/24 02:12:08;;;;;;;1.65;1.50;;;;;;;14.66;62.87;98064.78;4429372;32;20665;-71
2022/05/24 02:14:43;;;;;;;4.12;2.12;;;;;;;14.68;62.83;98079.38;4439243;32;20120;-72
2022/05/24 02:17:15;;;;;;;5.00;2.55;;;;;;;14.59;63.88;98090.97;4439569;32;20113;-72
2022/05/24 02:19:45;;;;;;;2.95;2.55;;;;;;;14.53;65.78;98083.78;4452071;32;20580;-72
2022/05/24 02:22:17;;;;;;;4.47;1.85;;;;;;;14.50;66.46;98081.53;4452269;32;20151;-72
2022/05/24 02:24:45;;;;;;;5.05;1.98;;;;;;;14.43;67.85;98093.75;4438996;32;20101;-71
2022/05/24 02:27:13;;;;;;;4.37;2.03;;;;;;;14.36;70.24;98097.13;4452083;32;20190;-72
2022/05/24 02:29:40;;;;;;;3.67;2.03;;;;;;;14.38;70.90;98104.84;4451684;32;20108;-72
2022/05/24 02:32:07;;;;;;;3.87;2.28;;;;;;;14.19;73.40;98109.59;4439261;32;20331;-71
2022/05/24 02:34:34;;;;;;;2.33;2.03;;;;;;;14.16;78.65;98114.41;4436372;32;20196;-72
2022/05/24 02:37:02;;;;;;;3.33;2.60;;;;;;;14.04;80.94;98115.84;4467365;32;20115;-72
2022/05/24 02:39:29;;;;;;;3.22;2.25;;;;;;;13.95;82.28;98120.31;4469854;32;20096;-72
2022/05/24 02:41:56;;;;;;;5.95;2.97;;;;;;;13.75;83.32;98120.78;4470012;32;20104;-72
2022/05/24 02:44:24;;;;;;;4.07;2.62;;;;;;;13.51;86.34;98116.47;4469776;32;20194;-71
2022/05/24 02:46:51;;;;;;;5.53;2.47;;;;;;;13.39;86.39;98110.75;4469865;32;20152;-72
2022/05/24 02:49:18;;;;;;;10.05;2.95;;;;;;;13.32;88.66;98115.84;4469960;32;20200;-71
2022/05/24 02:51:47;;;;;;;5.87;3.33;;;;;;;13.43;88.98;98119.09;4469633;32;20386;-71
2022/05/24 02:54:14;;;;;;;4.03;3.05;;;;;;;13.37;90.04;98120.63;4469985;32;20101;-71
2022/05/24 02:56:43;;;;;;;7.05;3.03;;;;;;;13.49;89.00;98113.19;4468843;32;20179;-71
2022/05/24 02:59:10;;;;;;;4.10;2.97;;;;;;;13.56;86.77;98115.94;4469553;32;20077;-71
2022/05/24 03:01:37;;;;;;;9.48;3.03;;;;;;;13.51;86.64;98123.53;4469592;32;20120;-71
2022/05/24 03:04:05;;;;;;;4.43;2.78;;;;;;;13.20;90.98;98119.00;4469669;32;20139;-71
2022/05/24 03:09:33;;;;;;;5.60;2.87;;;;;;;12.95;91.78;98104.13;4469592;32;20131;-72
2022/05/24 03:09:35;;;;;;;5.75;3.10;;;;;;;13.00;92.51;98095.72;4469729;32;20152;-71
2022/05/24 03:14:56;;;;;;;5.20;2.87;;;;;;;12.89;94.83;98080.34;4469679;32;20100;-72
2022/05/24 03:17:24;;;;;;;5.93;3.53;;;;;;;12.76;96.71;98081.69;4469555;32;20492;-71
2022/05/24 03:19:52;;;;;;;8.13;3.33;;;;;;;12.66;98.45;98072.34;4469728;32;20097;-72
2022/05/24 03:22:19;;;;;;;6.12;3.37;;;;;;;12.62;95.83;98082.34;4469385;32;20143;-71
2022/05/24 03:24:47;;;;;;;4.45;3.05;;;;;;;12.73;96.87;98091.69;4469863;32;20104;-72
2022/05/24 03:27:15;;;;;;;6.43;3.30;;;;;;;12.67;96.65;98101.09;4469418;32;20100;-71
2022/05/24 03:29:45;;;;;;;6.53;3.30;;;;;;;12.72;97.23;98121.62;4469421;32;20116;-71
2022/05/24 03:32:13;;;;;;;6.72;3.10;;;;;;;12.67;98.01;98137.88;4482857;32;20097;-71
2022/05/24 03:34:41;;;;;;;5.62;3.55;;;;;;;12.65;100.00;98155.59;4485266;32;20132;-71
2022/05/24 03:37:09;;;;;;;5.22;3.42;;;;;;;12.69;100.00;98164.00;4485143;31;20088;-71
2022/05/24 03:39:36;;;;;;;5.78;3.70;;;;;;;12.78;99.22;98166.44;4485219;31;20122;-71
2022/05/24 03:42:04;;;;;;;6.43;3.40;;;;;;;12.77;100.00;98162.16;4485159;31;20109;-71
2022/05/24 03:44:31;;;;;;;17.45;3.95;;;;;;;12.69;100.00;98150.84;4485209;31;20092;-71
2022/05/24 03:46:58;;;;;;;4.30;3.20;;;;;;;12.48;98.59;98133.78;4485002;31;20414;-71
2022/05/24 03:49:26;;;;;;;4.40;3.37;;;;;;;12.49;99.46;98119.66;4485112;32;20080;-71
2022/05/24 03:51:53;;;;;;;4.95;3.50;;;;;;;12.49;99.40;98118.81;4484820;31;20120;-71
2022/05/24 03:54:20;;;;;;;7.47;3.55;;;;;;;12.37;100.00;98128.84;4485112;32;20089;-72
2022/05/24 03:59:33;;;;;;;7.25;3.92;;;;;;;12.18;100.00;98124.75;4484749;32;20106;-71
2022/05/24 04:02:00;;;;;;;5.07;3.92;;;;;;;12.02;100.00;98117.66;4484802;32;20092;-71
2022/05/24 04:04:29;;;;;;;4.30;3.60;;;;;;;12.00;100.00;98130.16;4484491;32;20184;-71
2022/05/24 04:06:56;;;;;;;5.30;3.30;;;;;;;11.96;100.00;98144.56;4484520;31;20127;-73
2022/05/24 04:09:23;;;;;;;5.65;3.62;;;;;;;12.04;100.00;98147.22;4484954;31;20099;-72
2022/05/24 04:11:54;;;;;;;5.47;4.10;;;;;;;12.11;100.00;98150.00;4484783;31;20548;-72
2022/05/24 04:14:22;;;;;;;6.07;3.90;;;;;;;12.18;100.00;98143.94;4484992;31;20085;-72
2022/05/24 04:16:50;;;;;;;6.68;3.33;;;;;;;12.19;100.00;98145.59;4484656;31;20100;-72
2022/05/24 04:19:17;;;;;;;8.70;3.92;;;;;;;12.16;100.00;98140.66;4484849;31;20088;-72
2022/05/24 04:21:44;;;;;;;5.55;4.00;;;;;;;12.18;100.00;98149.19;4484721;31;20131;-72
2022/05/24 04:24:13;;;;;;;6.30;4.00;;;;;;;12.13;100.00;98154.13;4484809;32;20499;-72
2022/05/24 04:26:40;;;;;;;8.60;4.37;;;;;;;12.18;100.00;98153.62;4484718;31;20084;-72
2022/05/24 04:29:07;;;;;;;5.25;4.07;;;;;;;12.04;100.00;98158.53;4484564;31;20122;-72
2022/05/24 04:31:35;;;;;;;6.12;4.43;;;;;;;12.15;100.00;98161.84;4484715;32;20104;-72
2022/05/24 04:34:03;;;;;;;10.55;4.25;;;;;;;12.06;100.00;98153.94;4484737;31;20131;-72
2022/05/24 04:36:31;;;;;;;7.25;4.72;;;;;;;12.15;100.00;98154.78;4484658;31;20119;-72
2022/05/24 04:38:59;;;;;;;7.53;4.87;;;;;;;12.10;100.00;98154.44;4484738;31;20112;-72
2022/05/24 04:44:12;;;;;;;9.07;4.07;;;;;;;12.22;100.00;98154.97;4484667;31;20365;-72
2022/05/24 04:49:25;;;;;;;7.05;3.95;;;;;;;12.19;100.00;98166.59;4484447;31;20096;-72
2022/05/24 04:51:54;;;;;;;6.85;4.90;;;;;;;12.23;100.00;98172.34;4482886;32;20143;-72
2022/05/24 04:54:25;;;;;;;5.30;4.12;;;;;;;12.17;100.00;98163.31;4484344;31;20088;-72
2022/05/24 04:56:52;;;;;;;6.43;4.70;;;;;;;12.24;100.00;98155.59;4484274;31;20121;-71
2022/05/24 04:59:23;;;;;;;8.52;4.68;;;;;;;12.23;100.00;98152.16;4484000;31;20176;-71
2022/05/24 05:01:53;;;;;;;5.62;4.45;;;;;;;12.13;100.00;98156.75;4483243;31;20123;-71
2022/05/24 05:04:22;;;;;;;12.10;4.90;;;;;;;12.11;100.00;98142.13;4478283;32;20551;-71
2022/05/24 05:06:49;;;;;;;7.62;4.80;;;;;;;11.99;100.00;98160.00;4482195;31;20118;-71
2022/05/24 05:09:19;;;;;;;8.60;4.80;;;;;;;11.86;100.00;98155.19;4483564;31;20091;-71
2022/05/24 05:11:46;;;;;;;7.68;4.45;;;;;;;11.84;100.00;98162.38;4474100;31;20100;-71
2022/05/24 05:14:19;;;;;;;5.80;4.70;;;;;;;11.86;100.00;98156.00;4478356;31;20118;-71
2022/05/24 05:16:47;;;;;;;6.97;4.35;;;;;;;11.75;100.00;98158.94;4477427;32;20164;-71
2022/05/24 05:19:14;;;;;;;8.35;4.32;;;;;;;11.75;100.00;98158.94;4482971;31;20135;-71
2022/05/24 05:21:41;;;;;;;7.00;5.12;;;;;;;11.71;100.00;98160.22;4483561;31;20123;-71
2022/05/24 05:24:09;;;;;;;5.65;4.10;;;;;;;11.77;100.00;98162.22;4482508;32;20109;-71
2022/05/24 05:26:36;;;;;;;8.10;4.70;;;;;;;11.88;100.00;98163.72;4483516;31;20130;-71
2022/05/24 05:29:03;;;;;;;7.47;5.07;;;;;;;11.89;100.00;98166.19;4484463;31;20096;-71
2022/05/24 05:31:31;;;;;;;8.23;4.18;;;;;;;11.86;100.00;98171.75;4483756;32;20525;-71
2022/05/24 05:34:00;;;;;;;9.23;4.75;;;;;;;11.90;100.00;98172.28;4485718;31;20092;-71
2022/05/24 05:36:28;;;;;;;6.93;4.40;;;;;;;11.93;100.00;98171.13;4483352;31;20123;-71
2022/05/24 05:38:56;;;;;;;8.02;4.30;;;;;;;11.98;100.00;98164.44;4483656;32;20561;-71
2022/05/24 05:41:30;;;;;;;5.50;4.35;;;;;;;12.03;100.00;98164.75;4481834;31;20122;-71
2022/05/24 05:43:59;;;;;;;7.70;4.50;;;;;;;12.06;100.00;98164.44;4483203;31;20118;-71
2022/05/24 05:46:26;;;;;;;9.05;4.32;;;;;;;12.18;100.00;98166.75;4484077;31;20104;-71
2022/05/24 05:48:54;;;;;;;8.35;4.80;;;;;;;12.14;100.00;98174.16;4484345;31;20096;-71
2022/05/24 05:51:22;;;;;;;7.22;4.60;;;;;;;12.19;100.00;98171.84;4481386;32;20168;-71
2022/05/24 05:53:49;;;;;;;8.02;4.70;;;;;;;12.08;100.00;98174.78;4484644;31;20092;-71
2022/05/24 05:56:22;;;;;;;7.47;4.82;;;;;;;11.98;100.00;98174.94;4484003;31;20583;-71
2022/05/24 05:58:49;;;;;;;9.40;5.50;;;;;;;12.01;100.00;98173.78;4484607;31;20122;-71
2022/05/24 06:01:19;;;;;;;7.60;5.35;;;;;;;12.11;100.00;98169.19;4479993;31;20127;-71
2022/05/24 06:03:49;;;;;;;6.62;5.15;;;;;;;12.11;100.00;98163.13;4484034;31;20084;-71
2022/05/24 06:06:21;;;;;;;7.78;5.53;;;;;;;12.17;100.00;98173.00;4483905;31;20092;-71
2022/05/24 06:08:49;;;;;;;6.57;4.93;;;;;;;12.10;100.00;98170.19;4481477;32;20149;-71
2022/05/24 06:11:16;;;;;;;7.85;5.05;;;;;;;12.04;100.00;98170.84;4481291;31;20131;-72
2022/05/24 06:13:43;;;;;;;6.70;4.82;;;;;;;12.12;100.00;98170.03;4481878;32;20107;-71
2022/05/24 06:16:11;;;;;;;6.70;4.97;;;;;;;12.01;100.00;98163.28;4480750;32;20096;-71
2022/05/24 06:18:38;;;;;;;6.60;4.18;;;;;;;12.18;100.00;98162.31;4483030;31;20100;-71
2022/05/24 06:21:06;;;;;;;7.20;4.72;;;;;;;12.22;100.00;98162.84;4483513;32;20153;-72
2022/05/24 06:23:36;;;;;;;7.65;4.60;;;;;;;12.22;100.00;98155.78;4482989;31;20095;-72
2022/05/24 06:26:03;;;;;;;6.07;4.72;;;;;;;12.17;100.00;98149.34;4469178;32;20176;-71
2022/05/24 06:28:33;;;;;;;9.85;5.18;;;;;;;12.13;100.00;98167.25;4482783;31;20096;-71
2022/05/24 06:31:00;;;;;;;8.18;4.47;;;;;;;12.22;100.00;98157.59;4484343;32;20127;-72
2022/05/24 06:33:28;;;;;;;6.43;4.60;;;;;;;12.38;100.00;98169.91;4484290;32;20141;-71
2022/05/24 06:35:55;;;;;;;7.80;5.32;;;;;;;12.51;100.00;98174.69;4485172;31;20099;-71
2022/05/24 06:38:23;;;;;;;6.93;4.60;;;;;;;12.41;100.00;98167.78;4481933;32;20093;-71
2022/05/24 06:40:50;;;;;;;5.65;4.28;;;;;;;12.51;100.00;98182.56;4480846;32;20096;-71
2022/05/24 06:43:17;;;;;;;9.45;4.90;;;;;;;12.44;100.00;98185.00;4483054;32;20100;-71
2022/05/24 06:45:44;;;;;;;5.78;4.85;;;;;;;12.55;100.00;98183.84;4483457;31;20572;-71
2022/05/24 06:48:12;;;;;;;7.45;5.32;;;;;;;12.54;100.00;98187.47;4476017;32;20115;-70
2022/05/24 06:50:40;;;;;;;6.43;5.18;;;;;;;12.59;100.00;98191.25;4476225;32;20105;-73
2022/05/24 06:53:08;;;;;;;11.25;5.32;;;;;;;12.58;100.00;98197.50;4483332;31;20160;-70
2022/05/24 06:55:37;;;;;;;8.15;5.53;;;;;;;12.65;100.00;98197.66;4486835;31;20893;-72
2022/05/24 06:58:05;;;;;;;8.52;5.47;;;;;;;12.74;100.00;98198.47;4483287;31;20111;-71
2022/05/24 07:03:20;;;;;;;7.65;5.60;;;;;;;12.48;100.00;98196.03;4482334;32;20168;-72
2022/05/24 07:05:48;;;;;;;7.28;5.90;;;;;;;12.46;100.00;98201.44;4484124;32;20166;-72
2022/05/24 07:08:17;;;;;;;9.30;6.05;;;;;;;12.53;100.00;98194.53;4483014;32;20445;-72
2022/05/24 07:10:44;;;;;;;10.18;5.95;;;;;;;12.71;100.00;98191.72;4484752;31;20123;-72
2022/05/24 07:13:16;;;;;;;6.55;5.50;;;;;;;12.84;100.00;98209.66;4484537;32;20165;-72
2022/05/24 07:15:45;;;;;;;8.18;6.05;;;;;;;12.90;100.00;98195.84;4483460;31;20134;-73
2022/05/24 07:18:13;;;;;;;8.48;5.97;;;;;;;13.01;100.00;98201.75;4480930;32;20097;-72
2022/05/24 07:20:41;;;;;;;8.18;5.65;;;;;;;13.17;100.00;98206.97;4484503;31;20123;-71
2022/05/24 07:23:16;;;;;;;7.28;5.57;;;;;;;13.30;100.00;98203.81;4477410;31;20084;-72
2022/05/24 07:25:45;;;;;;;8.38;5.25;;;;;;;13.58;100.00;98200.78;4476703;32;20119;-71
2022/05/24 07:28:19;;;;;;;6.20;4.65;;;;;;;13.71;100.00;98200.25;4483191;32;20092;-71
2022/05/24 07:30:47;;;;;;;9.98;5.10;;;;;;;13.79;100.00;98201.06;4475314;31;20569;-71
2022/05/24 07:33:16;;;;;;;7.62;5.50;;;;;;;13.69;100.00;98200.44;4480507;32;20165;-71
2022/05/24 07:35:43;;;;;;;8.73;5.05;;;;;;;13.74;100.00;98205.19;4481786;31;20131;-72
2022/05/24 07:38:12;;;;;;;7.60;4.40;;;;;;;13.71;100.00;98197.63;4483668;31;20509;-71
2022/05/24 07:46:13;;;;;;;6.03;4.55;;;;;;;14.09;99.95;98190.66;4479762;32;20212;-71
2022/05/24 07:48:41;;;;;;;8.40;4.85;;;;;;;14.30;99.34;98189.22;4480170;32;20119;-71
2022/05/24 07:51:08;;;;;;;5.50;4.07;;;;;;;14.39;98.71;98196.09;4485186;31;20081;-72
2022/05/24 07:53:36;;;;;;;6.87;4.10;;;;;;;14.47;95.86;98195.19;4483802;31;20091;-71
2022/05/24 07:56:03;;;;;;;5.25;4.37;;;;;;;14.35;95.40;98200.91;4482875;31;20114;-71
2022/05/24 07:58:31;;;;;;;5.30;4.37;;;;;;;14.48;94.69;98204.75;4484554;31;20103;-71
2022/05/24 08:00:58;;;;;;;6.07;4.00;;;;;;;14.60;95.92;98218.34;4480641;31;20108;-71
2022/05/24 08:03:27;;;;;;;5.20;4.00;;;;;;;14.88;94.12;98216.00;4482831;31;20104;-72
2022/05/24 08:05:54;;;;;;;5.75;3.83;;;;;;;14.82;93.33;98220.19;4484407;31;20087;-72
2022/05/24 08:08:22;;;;;;;6.55;4.75;;;;;;;14.60;93.08;98205.16;4481715;31;20533;-72
2022/05/24 08:10:49;;;;;;;6.35;4.78;;;;;;;14.50;95.21;98213.31;4477586;31;20171;-72
2022/05/24 08:13:19;;;;;;;6.37;5.32;;;;;;;14.22;97.90;98219.09;4475061;31;20122;-72
2022/05/24 08:15:49;;;;;;;8.15;5.57;;;;;;;14.29;99.80;98212.13;4481159;31;20164;-71
2022/05/24 08:18:17;;;;;;;7.80;5.97;;;;;;;14.49;100.00;98201.94;4478683;32;20175;-71
2022/05/24 08:20:44;;;;;;;11.27;7.37;;;;;;;14.60;99.99;98203.34;4481241;31;20106;-72
2022/05/24 08:23:12;;;;;;;9.65;7.07;;;;;;;14.74;97.60;98209.69;4480936;32;20104;-71
2022/05/24 08:25:40;;;;;;;8.73;5.18;;;;;;;14.83;96.96;98208.63;4482422;32;20104;-70
2022/05/24 08:28:07;;;;;;;8.80;6.12;;;;;;;15.01;95.45;98200.38;4483093;31;20468;-71
2022/05/24 08:30:37;;;;;;;7.20;6.03;;;;;;;15.00;94.93;98198.72;4481538;31;20503;-70
2022/05/24 08:33:05;;;;;;;9.88;6.28;;;;;;;15.22;94.50;98201.50;4480967;32;20141;-72
2022/05/24 08:35:33;;;;;;;8.35;5.90;;;;;;;15.30;92.76;98209.31;4483324;31;20088;-71
2022/05/24 08:38:02;;;;;;;6.78;5.57;;;;;;;15.79;92.35;98207.97;4482548;31;20088;-71
2022/05/24 08:40:30;;;;;;;7.72;5.40;;;;;;;15.89;90.02;98212.97;4478411;32;20124;-71
2022/05/24 08:43:38;;;;;;;6.43;5.07;;;;;;;16.28;87.28;98206.50;4481414;32;20096;-69
2022/05/24 08:49:05;;;;;;;12.80;6.00;;;;;;;16.79;82.87;98208.16;4481009;32;20088;-71
2022/05/24 08:51:37;;;;;;;9.50;5.25;;;;;;;16.94;83.67;98206.31;4476879;32;20113;-70
2022/05/24 08:54:14;;;;;;;7.40;5.22;;;;;;;16.79;83.48;98206.38;4477759;32;20457;-70
2022/05/24 08:56:59;;;;;;;8.82;5.70;;;;;;;16.93;83.03;98209.16;4478181;32;20104;-71
2022/05/24 08:59:35;;;;;;;6.37;5.03;;;;;;;16.54;84.49;98200.66;4475659;32;20508;-73
2022/05/24 09:02:05;;;;;;;6.22;5.03;;;;;;;16.87;83.30;98202.78;4482497;32;20153;-73
2022/05/24 09:04:32;;;;;;;9.43;5.53;;;;;;;17.08;82.00;98203.75;4478241;31;20560;-73
2022/05/24 09:07:23;;;;;;;10.50;6.85;;;;;;;16.77;83.21;98213.66;4480779;31;20114;-73
2022/05/24 09:09:57;;;;;;;8.15;5.40;;;;;;;16.76;83.60;98213.84;4479968;32;20088;-73
2022/05/24 09:12:59;;;;;;;6.87;5.35;;;;;;;16.56;85.29;98211.03;4482430;32;20124;-72
2022/05/24 09:15:50;;;;;;;6.30;5.12;;;;;;;16.68;85.04;98214.81;4484549;32;20130;-72
2022/05/24 09:18:31;;;;;;;7.30;6.07;;;;;;;16.87;84.50;98220.50;4477573;32;20450;-74
2022/05/24 09:20:59;;;;;;;7.12;4.82;;;;;;;17.06;82.98;98219.00;4481388;32;20144;-74
2022/05/24 09:23:31;;;;;;;7.47;4.80;;;;;;;17.43;82.88;98214.38;4483327;31;20100;-73
2022/05/24 09:26:07;;;;;;;7.55;4.37;;;;;;;17.87;80.51;98203.38;4480603;31;20088;-72
2022/05/24 09:28:48;;;;;;;6.95;4.95;;;;;;;17.83;78.79;98204.78;4480385;31;20135;-73
2022/05/24 09:31:26;;;;;;;7.12;4.60;;;;;;;18.13;76.56;98207.16;4483534;32;20202;-74
2022/05/24 09:33:59;;;;;;;5.75;4.43;;;;;;;18.45;77.41;98215.38;4484399;32;20104;-74
2022/05/24 09:36:32;;;;;;;6.82;4.43;;;;;;;18.54;76.28;98213.38;4484079;31;20092;-73
2022/05/24 09:39:03;;;;;;;12.00;4.22;;;;;;;18.65;74.16;98223.38;4480213;31;20119;-75
2022/05/24 09:41:31;;;;;;;5.35;3.37;;;;;;;18.53;74.19;98220.50;4481943;32;20432;-74
2022/05/24 09:44:04;;;;;;;4.82;3.05;;;;;;;18.54;73.96;98219.47;4482332;31;20104;-72
2022/05/24 09:46:32;;;;;;;3.90;3.30;;;;;;;18.30;72.80;98226.16;4484104;32;20083;-73
2022/05/24 09:49:03;;;;;;;5.62;3.40;;;;;;;18.20;73.62;98226.56;4484402;31;20092;-74
2022/05/24 09:51:40;;;;;;;5.32;3.92;;;;;;;18.29;73.46;98227.19;4481577;32;20108;-72
2022/05/24 09:54:17;;;;;;;6.72;3.50;;;;;;;18.31;72.44;98237.59;4483195;32;20101;-72
2022/05/24 09:57:07;;;;;;;4.80;3.95;;;;;;;18.36;70.38;98225.34;4484297;32;20151;-73
2022/05/24 09:59:37;;;;;;;5.53;3.85;;;;;;;18.23;72.99;98225.34;4483097;31;20536;-73
2022/05/24 10:02:25;;;;;;;6.40;3.87;;;;;;;18.31;72.73;98233.09;4484226;31;20109;-73
2022/05/24 10:04:54;;;;;;;11.05;4.32;;;;;;;18.42;72.88;98226.41;4474004;32;20093;-72
2022/05/24 10:07:29;;;;;;;5.53;4.00;;;;;;;18.57;73.73;98226.22;4483491;31;20108;-72
2022/05/24 10:10:12;;;;;;;9.23;4.18;;;;;;;18.53;71.78;98222.34;4483172;31;20640;-73
2022/05/24 10:13:04;;;;;;;7.43;4.53;;;;;;;18.50;72.22;98234.19;4480849;31;20088;-72
2022/05/24 10:16:08;;;;;;;5.72;5.03;;;;;;;18.71;70.62;98227.06;4484056;31;20468;-74
2022/05/24 10:18:38;;;;;;;7.90;4.60;;;;;;;18.79;72.95;98224.22;4482860;31;20119;-73
2022/05/24 10:21:11;;;;;;;5.45;3.95;;;;;;;19.15;70.06;98228.31;4480497;31;20088;-73
2022/05/24 10:23:53;;;;;;;4.40;3.55;;;;;;;19.14;68.29;98232.00;4484880;31;20096;-73
2022/05/24 10:26:43;;;;;;;4.28;3.55;;;;;;;19.62;69.79;98236.19;4483335;31;20119;-73
2022/05/24 10:29:58;;;;;;;4.10;3.25;;;;;;;19.40;67.99;98231.13;4479265;32;20166;-72
2022/05/24 10:39:29;;;;;;;5.20;3.67;;;;;;;19.73;65.83;98214.28;4476075;32;20164;-72
2022/05/24 10:42:06;;;;;;;6.32;3.60;;;;;;;20.08;64.00;98213.16;4474896;32;20104;-73
2022/05/24 10:44:44;;;;;;;6.60;3.95;;;;;;;20.06;64.90;98220.53;4484893;31;20465;-73
2022/05/24 10:47:25;;;;;;;8.05;3.75;;;;;;;20.20;66.25;98216.78;4481235;32;20504;-73
2022/05/24 10:50:01;;;;;;;5.53;3.60;;;;;;;19.95;64.96;98208.72;4469762;32;20108;-72
2022/05/24 10:52:55;;;;;;;5.97;3.53;;;;;;;19.97;67.72;98209.31;4482430;32;20129;-71
2022/05/24 10:55:32;;;;;;;;;;;;;;;20.10;66.87;98216.41;4478939;32;20131;-73
2022/05/24 10:58:11;;;;;;;5.40;3.25;;;;;;;20.35;63.98;98211.19;4480412;32;19979;-74
2022/05/24 11:01:28;;;;;;;4.60;3.50;;;;;;;20.33;66.40;98219.38;4474591;32;20109;-74
2022/05/24 11:04:06;;;;;;;10.38;3.80;;;;;;;20.53;64.48;98213.91;4411602;32;20514;-73
2022/05/24 11:06:41;;;;;;;7.72;3.75;;;;;;;20.29;64.01;98183.56;4417792;32;20124;-74
2022/05/24 11:09:12;;;;;;;6.53;4.00;;;;;;;20.05;65.89;98189.66;4415639;32;20106;-72
2022/05/24 11:11:57;;;;;;;7.50;3.60;;;;;;;19.86;66.90;98189.53;4415222;32;20137;-74
2022/05/24 11:14:30;;;;;;;4.03;3.00;;;;;;;20.16;65.25;98195.09;4417441;32;20105;-73
2022/05/24 11:16:58;;;;;;;5.15;3.10;;;;;;;20.11;63.63;98194.13;4418134;32;20117;-74
2022/05/24 11:19:28;;;;;;;6.60;3.90;;;;;;;20.25;65.88;98189.53;4400206;32;20524;-73
2022/05/24 11:22:07;;;;;;;5.60;3.22;;;;;;;20.42;63.98;98203.13;4419470;32;20110;-72
2022/05/24 11:24:43;;;;;;;4.53;3.20;;;;;;;20.37;64.24;98207.25;4420226;32;20105;-73
2022/05/24 11:27:37;;;;;;;4.97;3.33;;;;;;;20.54;62.87;98196.91;4416946;32;20143;-73
2022/05/24 11:30:33;;;;;;;3.37;3.08;;;;;;;20.51;62.78;98196.53;4401984;32;20133;-73
2022/05/24 11:33:03;;;;;;;6.53;3.42;;;;;;;20.30;63.97;98179.91;4411465;32;20185;-73
2022/05/24 11:35:40;;;;;;;5.15;3.67;;;;;;;20.25;62.81;98185.03;4417324;32;20525;-74
2022/05/24 11:38:32;;;;;;;6.62;4.00;;;;;;;20.43;65.77;98183.50;4420776;32;20094;-73
2022/05/24 11:41:11;;;;;;;4.57;3.53;;;;;;;20.73;64.04;98195.16;4448992;32;20180;-73
2022/05/24 11:43:44;;;;;;;6.95;4.10;;;;;;;20.76;62.32;98188.59;4479500;32;20108;-73
2022/05/24 11:46:51;;;;;;;5.35;3.83;;;;;;;20.83;63.05;98188.53;4480531;31;20533;-74
2022/05/24 11:49:18;;;;;;;5.97;3.78;;;;;;;20.85;62.69;98189.94;4430314;32;20118;-74
2022/05/24 11:51:51;;;;;;;3.85;3.47;;;;;;;21.12;61.43;98189.72;4432632;32;20101;-73
2022/05/24 11:54:18;;;;;;;4.90;3.40;;;;;;;21.18;61.50;98209.31;4423930;32;20105;-73
2022/05/24 11:57:00;;;;;;;8.77;4.25;;;;;;;21.36;63.93;98201.38;4421967;32;20808;-74
2022/05/24 11:59:48;;;;;;;5.70;3.90;;;;;;;21.31;62.17;98192.41;4420615;32;83748;-72
2022/05/24 12:02:20;;;;;;;6.18;3.85;;;;;;;21.20;61.75;98181.44;4428221;32;20140;-72
2022/05/24 12:08:05;;;;;;;6.57;3.40;;;;;;;21.57;62.27;98170.81;4425239;32;20302;-73
2022/05/24 12:10:42;;;;;;;4.45;3.92;;;;;;;21.64;59.28;98173.41;4414006;32;20610;-74
2022/05/24 12:13:31;;;;;;;4.10;3.42;;;;;;;21.27;61.91;98179.53;4420274;32;20093;-74
2022/05/24 12:16:03;;;;;;;4.43;3.35;;;;;;;21.35;62.84;98181.09;4440210;32;20175;-73
2022/05/24 12:18:42;;;;;;;5.45;3.30;;;;;;;21.58;59.05;98176.97;4435325;32;20132;-72
2022/05/24 12:21:36;;;;;;;4.90;4.05;;;;;;;21.85;59.83;98181.97;4467171;31;20517;-74
2022/05/24 12:24:23;;;;;;;4.68;4.18;;;;;;;21.78;64.77;98180.19;4479416;31;20126;-74
2022/05/24 12:27:15;;;;;;;10.60;3.80;;;;;;;22.26;60.75;98170.53;4484822;31;20092;-74
2022/05/24 12:29:45;;;;;;;4.47;3.87;;;;;;;22.45;56.24;98166.00;4484179;31;20160;-74
2022/05/24 12:32:16;;;;;;;4.65;3.90;;;;;;;22.19;58.78;98167.16;4483313;31;20092;-74